sensor_id;sensor_type;location;lat;lon;timestamp;P1;durP1;ratioP1;P2;durP2;ratioP2
30862;SDS011;17573;55.922;37.540;2023-07-20T00:01:22;7.18;;;3.45;;
30862;SDS011;17573;55.922;37.540;2023-07-20T00:03:47;12.25;;;2.88;;
30862;SDS011;17573;55.922;37.540;2023-07-20T00:06:23;4.82;;;2.38;;
30862;SDS011;17573;55.922;37.540;2023-07-20T00:08:50;6.78;;;2.33;;
30862;SDS011;17573;55.922;37.540;2023-07-20T00:11:17;10.50;;;2.50;;
30862;SDS011;17573;55.922;37.540;2023-07-20T00:13:43;11.07;;;2.42;;
30862;SDS011;17573;55.922;37.540;2023-07-20T00:16:09;6.60;;;2.38;;
30862;SDS011;17573;55.922;37.540;2023-07-20T00:18:35;12.63;;;2.58;;
30862;SDS011;17573;55.922;37.540;2023-07-20T00:21:01;12.10;;;3.20;;
30862;SDS011;17573;55.922;37.540;2023-07-20T00:23:27;5.43;;;2.70;;
30862;SDS011;17573;55.922;37.540;2023-07-20T00:25:53;7.45;;;2.50;;
30862;SDS011;17573;55.922;37.540;2023-07-20T00:28:19;8.07;;;2.67;;
30862;SDS011;17573;55.922;37.540;2023-07-20T00:30:48;4.25;;;2.75;;
30862;SDS011;17573;55.922;37.540;2023-07-20T00:33:17;7.55;;;3.20;;
30862;SDS011;17573;55.922;37.540;2023-07-20T00:35:43;5.30;;;2.78;;
30862;SDS011;17573;55.922;37.540;2023-07-20T00:38:09;16.83;;;3.35;;
30862;SDS011;17573;55.922;37.540;2023-07-20T00:40:36;5.82;;;2.70;;
30862;SDS011;17573;55.922;37.540;2023-07-20T00:43:06;4.55;;;2.80;;
30862;SDS011;17573;55.922;37.540;2023-07-20T00:45:32;9.15;;;3.25;;
30862;SDS011;17573;55.922;37.540;2023-07-20T00:47:58;6.28;;;2.75;;
30862;SDS011;17573;55.922;37.540;2023-07-20T00:50:25;8.50;;;2.78;;
30862;SDS011;17573;55.922;37.540;2023-07-20T00:52:51;14.75;;;3.05;;
30862;SDS011;17573;55.922;37.540;2023-07-20T00:55:18;9.43;;;2.70;;
30862;SDS011;17573;55.922;37.540;2023-07-20T00:57:45;7.38;;;2.75;;
30862;SDS011;17573;55.922;37.540;2023-07-20T01:00:12;9.07;;;2.88;;
30862;SDS011;17573;55.922;37.540;2023-07-20T01:02:38;9.48;;;3.33;;
30862;SDS011;17573;55.922;37.540;2023-07-20T01:05:05;5.72;;;2.75;;
30862;SDS011;17573;55.922;37.540;2023-07-20T01:07:34;7.32;;;2.28;;
30862;SDS011;17573;55.922;37.540;2023-07-20T01:12:44;8.95;;;3.22;;
30862;SDS011;17573;55.922;37.540;2023-07-20T01:15:12;4.57;;;2.45;;
30862;SDS011;17573;55.922;37.540;2023-07-20T01:17:39;7.63;;;2.33;;
30862;SDS011;17573;55.922;37.540;2023-07-20T01:20:09;5.20;;;2.70;;
30862;SDS011;17573;55.922;37.540;2023-07-20T01:25:43;15.82;;;3.55;;
30862;SDS011;17573;55.922;37.540;2023-07-20T01:33:52;5.03;;;2.20;;
30862;SDS011;17573;55.922;37.540;2023-07-20T01:36:21;3.65;;;2.35;;
30862;SDS011;17573;55.922;37.540;2023-07-20T01:38:50;4.38;;;2.45;;
30862;SDS011;17573;55.922;37.540;2023-07-20T01:41:17;2.83;;;2.38;;
30862;SDS011;17573;55.922;37.540;2023-07-20T01:43:43;7.30;;;2.45;;
30862;SDS011;17573;55.922;37.540;2023-07-20T01:46:09;8.68;;;3.05;;
30862;SDS011;17573;55.922;37.540;2023-07-20T01:48:35;14.07;;;3.28;;
30862;SDS011;17573;55.922;37.540;2023-07-20T01:51:01;4.22;;;2.50;;
30862;SDS011;17573;55.922;37.540;2023-07-20T01:53:26;11.57;;;2.65;;
30862;SDS011;17573;55.922;37.540;2023-07-20T01:55:53;4.88;;;2.40;;
30862;SDS011;17573;55.922;37.540;2023-07-20T01:58:20;4.63;;;2.85;;
30862;SDS011;17573;55.922;37.540;2023-07-20T02:00:46;4.70;;;2.28;;
30862;SDS011;17573;55.922;37.540;2023-07-20T02:03:12;3.90;;;2.42;;
30862;SDS011;17573;55.922;37.540;2023-07-20T02:05:38;8.90;;;3.28;;
30862;SDS011;17573;55.922;37.540;2023-07-20T02:08:04;4.88;;;2.67;;
30862;SDS011;17573;55.922;37.540;2023-07-20T02:10:30;6.30;;;3.00;;
30862;SDS011;17573;55.922;37.540;2023-07-20T02:12:56;7.30;;;2.75;;
30862;SDS011;17573;55.922;37.540;2023-07-20T02:15:22;7.28;;;2.58;;
30862;SDS011;17573;55.922;37.540;2023-07-20T02:17:51;12.00;;;3.30;;
30862;SDS011;17573;55.922;37.540;2023-07-20T02:20:17;5.45;;;2.95;;
30862;SDS011;17573;55.922;37.540;2023-07-20T02:22:45;7.38;;;4.00;;
30862;SDS011;17573;55.922;37.540;2023-07-20T02:25:12;5.53;;;2.58;;
30862;SDS011;17573;55.922;37.540;2023-07-20T02:27:38;9.52;;;2.95;;
30862;SDS011;17573;55.922;37.540;2023-07-20T02:30:04;6.78;;;2.88;;
30862;SDS011;17573;55.922;37.540;2023-07-20T02:32:36;7.38;;;2.80;;
30862;SDS011;17573;55.922;37.540;2023-07-20T02:35:03;9.18;;;2.95;;
30862;SDS011;17573;55.922;37.540;2023-07-20T02:37:31;7.25;;;3.15;;
30862;SDS011;17573;55.922;37.540;2023-07-20T02:39:58;5.53;;;2.80;;
30862;SDS011;17573;55.922;37.540;2023-07-20T02:42:30;20.38;;;3.08;;
30862;SDS011;17573;55.922;37.540;2023-07-20T02:44:56;10.63;;;2.40;;
30862;SDS011;17573;55.922;37.540;2023-07-20T02:47:21;5.28;;;3.15;;
30862;SDS011;17573;55.922;37.540;2023-07-20T02:49:47;8.13;;;2.70;;
30862;SDS011;17573;55.922;37.540;2023-07-20T02:52:13;5.93;;;2.50;;
30862;SDS011;17573;55.922;37.540;2023-07-20T02:54:39;5.10;;;2.97;;
30862;SDS011;17573;55.922;37.540;2023-07-20T02:57:05;13.13;;;3.55;;
30862;SDS011;17573;55.922;37.540;2023-07-20T02:59:32;3.83;;;2.60;;
30862;SDS011;17573;55.922;37.540;2023-07-20T03:01:57;14.73;;;2.33;;
30862;SDS011;17573;55.922;37.540;2023-07-20T03:04:27;11.40;;;2.22;;
30862;SDS011;17573;55.922;37.540;2023-07-20T03:06:54;10.07;;;2.45;;
30862;SDS011;17573;55.922;37.540;2023-07-20T03:09:23;10.32;;;2.53;;
30862;SDS011;17573;55.922;37.540;2023-07-20T03:11:49;5.72;;;3.05;;
30862;SDS011;17573;55.922;37.540;2023-07-20T03:14:16;14.50;;;3.05;;
30862;SDS011;17573;55.922;37.540;2023-07-20T03:16:43;14.27;;;2.72;;
30862;SDS011;17573;55.922;37.540;2023-07-20T03:19:08;16.08;;;3.38;;
30862;SDS011;17573;55.922;37.540;2023-07-20T03:21:34;8.77;;;2.90;;
30862;SDS011;17573;55.922;37.540;2023-07-20T03:24:00;8.77;;;2.90;;
30862;SDS011;17573;55.922;37.540;2023-07-20T03:26:26;11.50;;;3.20;;
30862;SDS011;17573;55.922;37.540;2023-07-20T03:28:52;4.55;;;3.08;;
30862;SDS011;17573;55.922;37.540;2023-07-20T03:31:21;5.45;;;2.95;;
30862;SDS011;17573;55.922;37.540;2023-07-20T03:33:46;8.95;;;3.08;;
30862;SDS011;17573;55.922;37.540;2023-07-20T03:36:12;7.15;;;3.03;;
30862;SDS011;17573;55.922;37.540;2023-07-20T03:38:38;5.40;;;3.10;;
30862;SDS011;17573;55.922;37.540;2023-07-20T03:41:04;3.90;;;2.70;;
30862;SDS011;17573;55.922;37.540;2023-07-20T03:43:30;9.70;;;2.70;;
30862;SDS011;17573;55.922;37.540;2023-07-20T03:45:56;7.25;;;2.72;;
30862;SDS011;17573;55.922;37.540;2023-07-20T03:48:25;5.68;;;3.05;;
30862;SDS011;17573;55.922;37.540;2023-07-20T03:50:51;4.35;;;2.88;;
30862;SDS011;17573;55.922;37.540;2023-07-20T03:53:18;3.97;;;2.83;;
30862;SDS011;17573;55.922;37.540;2023-07-20T03:55:45;4.75;;;3.13;;
30862;SDS011;17573;55.922;37.540;2023-07-20T03:58:15;20.73;;;2.53;;
30862;SDS011;17573;55.922;37.540;2023-07-20T04:00:45;3.45;;;2.70;;
30862;SDS011;17573;55.922;37.540;2023-07-20T04:03:12;7.32;;;2.60;;
30862;SDS011;17573;55.922;37.540;2023-07-20T04:05:38;3.85;;;2.53;;
30862;SDS011;17573;55.922;37.540;2023-07-20T04:08:04;5.13;;;2.40;;
30862;SDS011;17573;55.922;37.540;2023-07-20T04:10:30;10.05;;;2.95;;
30862;SDS011;17573;55.922;37.540;2023-07-20T04:12:56;6.18;;;2.47;;
30862;SDS011;17573;55.922;37.540;2023-07-20T04:15:22;6.57;;;2.13;;
30862;SDS011;17573;55.922;37.540;2023-07-20T04:17:48;6.22;;;2.58;;
30862;SDS011;17573;55.922;37.540;2023-07-20T04:20:14;5.50;;;2.25;;
30862;SDS011;17573;55.922;37.540;2023-07-20T04:22:40;6.85;;;2.65;;
30862;SDS011;17573;55.922;37.540;2023-07-20T04:25:11;3.40;;;2.65;;
30862;SDS011;17573;55.922;37.540;2023-07-20T04:27:37;5.30;;;1.88;;
30862;SDS011;17573;55.922;37.540;2023-07-20T04:30:03;11.13;;;2.10;;
30862;SDS011;17573;55.922;37.540;2023-07-20T04:32:32;6.75;;;2.90;;
30862;SDS011;17573;55.922;37.540;2023-07-20T04:35:00;4.43;;;2.65;;
30862;SDS011;17573;55.922;37.540;2023-07-20T04:37:29;7.43;;;2.65;;
30862;SDS011;17573;55.922;37.540;2023-07-20T04:39:55;4.45;;;2.63;;
30862;SDS011;17573;55.922;37.540;2023-07-20T04:42:21;9.55;;;2.67;;
30862;SDS011;17573;55.922;37.540;2023-07-20T04:44:47;8.75;;;2.70;;
30862;SDS011;17573;55.922;37.540;2023-07-20T04:47:13;22.65;;;3.08;;
30862;SDS011;17573;55.922;37.540;2023-07-20T04:49:39;8.40;;;2.40;;
30862;SDS011;17573;55.922;37.540;2023-07-20T04:52:05;4.32;;;2.50;;
30862;SDS011;17573;55.922;37.540;2023-07-20T04:54:31;9.00;;;2.55;;
30862;SDS011;17573;55.922;37.540;2023-07-20T04:56:57;7.93;;;2.63;;
30862;SDS011;17573;55.922;37.540;2023-07-20T04:59:23;4.00;;;2.60;;
30862;SDS011;17573;55.922;37.540;2023-07-20T05:01:49;13.68;;;2.55;;
30862;SDS011;17573;55.922;37.540;2023-07-20T05:04:16;8.55;;;2.30;;
30862;SDS011;17573;55.922;37.540;2023-07-20T05:06:42;3.58;;;2.25;;
30862;SDS011;17573;55.922;37.540;2023-07-20T05:09:09;4.07;;;2.47;;
30862;SDS011;17573;55.922;37.540;2023-07-20T05:11:34;4.70;;;2.60;;
30862;SDS011;17573;55.922;37.540;2023-07-20T05:14:01;4.03;;;2.25;;
30862;SDS011;17573;55.922;37.540;2023-07-20T05:16:27;8.50;;;3.35;;
30862;SDS011;17573;55.922;37.540;2023-07-20T05:18:58;9.38;;;2.75;;
30862;SDS011;17573;55.922;37.540;2023-07-20T05:21:24;5.90;;;2.50;;
30862;SDS011;17573;55.922;37.540;2023-07-20T05:23:50;5.53;;;1.65;;
30862;SDS011;17573;55.922;37.540;2023-07-20T05:26:17;4.30;;;2.92;;
30862;SDS011;17573;55.922;37.540;2023-07-20T05:28:42;2.40;;;2.05;;
30862;SDS011;17573;55.922;37.540;2023-07-20T05:31:08;6.32;;;2.45;;
30862;SDS011;17573;55.922;37.540;2023-07-20T05:33:34;7.80;;;2.65;;
30862;SDS011;17573;55.922;37.540;2023-07-20T05:36:00;2.55;;;1.83;;
30862;SDS011;17573;55.922;37.540;2023-07-20T05:38:26;6.68;;;1.80;;
30862;SDS011;17573;55.922;37.540;2023-07-20T05:40:52;5.28;;;2.70;;
30862;SDS011;17573;55.922;37.540;2023-07-20T05:43:18;13.25;;;2.63;;
30862;SDS011;17573;55.922;37.540;2023-07-20T05:45:43;17.00;;;2.63;;
30862;SDS011;17573;55.922;37.540;2023-07-20T05:48:13;8.05;;;2.88;;
30862;SDS011;17573;55.922;37.540;2023-07-20T05:50:42;6.45;;;2.58;;
30862;SDS011;17573;55.922;37.540;2023-07-20T05:53:09;8.70;;;1.92;;
30862;SDS011;17573;55.922;37.540;2023-07-20T05:55:34;6.60;;;1.70;;
30862;SDS011;17573;55.922;37.540;2023-07-20T05:58:01;3.97;;;2.33;;
30862;SDS011;17573;55.922;37.540;2023-07-20T06:00:27;10.05;;;2.60;;
30862;SDS011;17573;55.922;37.540;2023-07-20T06:02:53;3.75;;;2.22;;
30862;SDS011;17573;55.922;37.540;2023-07-20T06:05:23;6.15;;;2.13;;
30862;SDS011;17573;55.922;37.540;2023-07-20T06:07:50;4.20;;;1.70;;
30862;SDS011;17573;55.922;37.540;2023-07-20T06:10:17;4.10;;;1.80;;
30862;SDS011;17573;55.922;37.540;2023-07-20T06:12:44;12.23;;;2.17;;
30862;SDS011;17573;55.922;37.540;2023-07-20T06:15:24;5.70;;;2.00;;
30862;SDS011;17573;55.922;37.540;2023-07-20T06:17:51;9.77;;;2.05;;
30862;SDS011;17573;55.922;37.540;2023-07-20T06:20:17;3.08;;;1.77;;
30862;SDS011;17573;55.922;37.540;2023-07-20T06:22:44;3.28;;;2.00;;
30862;SDS011;17573;55.922;37.540;2023-07-20T06:25:09;9.57;;;1.55;;
30862;SDS011;17573;55.922;37.540;2023-07-20T06:27:36;5.13;;;1.65;;
30862;SDS011;17573;55.922;37.540;2023-07-20T06:30:02;4.15;;;1.27;;
30862;SDS011;17573;55.922;37.540;2023-07-20T06:32:30;8.85;;;1.92;;
30862;SDS011;17573;55.922;37.540;2023-07-20T06:34:56;4.40;;;1.65;;
30862;SDS011;17573;55.922;37.540;2023-07-20T06:37:21;6.40;;;1.73;;
30862;SDS011;17573;55.922;37.540;2023-07-20T06:39:47;6.28;;;1.60;;
30862;SDS011;17573;55.922;37.540;2023-07-20T06:42:13;4.40;;;1.75;;
30862;SDS011;17573;55.922;37.540;2023-07-20T06:44:39;5.38;;;2.05;;
30862;SDS011;17573;55.922;37.540;2023-07-20T06:47:04;2.65;;;1.40;;
30862;SDS011;17573;55.922;37.540;2023-07-20T06:49:30;7.05;;;1.95;;
30862;SDS011;17573;55.922;37.540;2023-07-20T06:51:56;4.88;;;1.60;;
30862;SDS011;17573;55.922;37.540;2023-07-20T06:54:22;3.90;;;1.77;;
30862;SDS011;17573;55.922;37.540;2023-07-20T06:56:48;5.53;;;2.00;;
30862;SDS011;17573;55.922;37.540;2023-07-20T06:59:14;9.60;;;1.38;;
30862;SDS011;17573;55.922;37.540;2023-07-20T07:01:39;9.15;;;1.73;;
30862;SDS011;17573;55.922;37.540;2023-07-20T07:04:05;6.82;;;1.33;;
30862;SDS011;17573;55.922;37.540;2023-07-20T07:06:32;4.80;;;1.35;;
30862;SDS011;17573;55.922;37.540;2023-07-20T07:08:58;7.22;;;1.95;;
30862;SDS011;17573;55.922;37.540;2023-07-20T07:11:24;6.13;;;1.60;;
30862;SDS011;17573;55.922;37.540;2023-07-20T07:13:50;6.47;;;1.58;;
30862;SDS011;17573;55.922;37.540;2023-07-20T07:16:17;12.73;;;1.88;;
30862;SDS011;17573;55.922;37.540;2023-07-20T07:18:45;3.50;;;1.20;;
30862;SDS011;17573;55.922;37.540;2023-07-20T07:21:11;10.52;;;1.45;;
30862;SDS011;17573;55.922;37.540;2023-07-20T07:23:38;2.35;;;1.17;;
30862;SDS011;17573;55.922;37.540;2023-07-20T07:26:04;3.85;;;1.13;;
30862;SDS011;17573;55.922;37.540;2023-07-20T07:28:29;4.85;;;1.25;;
30862;SDS011;17573;55.922;37.540;2023-07-20T07:30:55;6.13;;;1.20;;
30862;SDS011;17573;55.922;37.540;2023-07-20T07:33:22;8.05;;;1.50;;
30862;SDS011;17573;55.922;37.540;2023-07-20T07:35:49;10.93;;;1.65;;
30862;SDS011;17573;55.922;37.540;2023-07-20T07:38:15;4.85;;;1.05;;
30862;SDS011;17573;55.922;37.540;2023-07-20T07:40:41;7.22;;;1.23;;
30862;SDS011;17573;55.922;37.540;2023-07-20T07:43:07;4.88;;;0.68;;
30862;SDS011;17573;55.922;37.540;2023-07-20T07:45:35;1.50;;;1.00;;
30862;SDS011;17573;55.922;37.540;2023-07-20T07:48:04;3.28;;;1.02;;
30862;SDS011;17573;55.922;37.540;2023-07-20T07:50:31;3.13;;;1.15;;
30862;SDS011;17573;55.922;37.540;2023-07-20T07:52:57;3.53;;;0.90;;
30862;SDS011;17573;55.922;37.540;2023-07-20T07:55:26;4.20;;;1.00;;
30862;SDS011;17573;55.922;37.540;2023-07-20T07:57:53;3.65;;;1.13;;
30862;SDS011;17573;55.922;37.540;2023-07-20T08:00:20;9.32;;;2.20;;
30862;SDS011;17573;55.922;37.540;2023-07-20T08:02:46;4.10;;;1.27;;
30862;SDS011;17573;55.922;37.540;2023-07-20T08:05:13;8.85;;;2.13;;
30862;SDS011;17573;55.922;37.540;2023-07-20T08:07:40;3.92;;;1.52;;
30862;SDS011;17573;55.922;37.540;2023-07-20T08:10:06;10.23;;;1.30;;
30862;SDS011;17573;55.922;37.540;2023-07-20T08:12:32;2.60;;;1.08;;
30862;SDS011;17573;55.922;37.540;2023-07-20T08:14:58;11.52;;;1.70;;
30862;SDS011;17573;55.922;37.540;2023-07-20T08:17:24;4.65;;;1.10;;
30862;SDS011;17573;55.922;37.540;2023-07-20T08:19:50;2.88;;;1.10;;
30862;SDS011;17573;55.922;37.540;2023-07-20T08:22:16;6.28;;;1.30;;
30862;SDS011;17573;55.922;37.540;2023-07-20T08:24:43;2.30;;;0.90;;
30862;SDS011;17573;55.922;37.540;2023-07-20T08:27:09;5.65;;;1.52;;
30862;SDS011;17573;55.922;37.540;2023-07-20T08:29:35;5.03;;;1.23;;
30862;SDS011;17573;55.922;37.540;2023-07-20T08:32:02;3.33;;;0.98;;
30862;SDS011;17573;55.922;37.540;2023-07-20T08:34:29;4.35;;;1.52;;
30862;SDS011;17573;55.922;37.540;2023-07-20T08:36:56;7.57;;;1.23;;
30862;SDS011;17573;55.922;37.540;2023-07-20T08:39:23;7.80;;;1.10;;
30862;SDS011;17573;55.922;37.540;2023-07-20T08:41:50;3.97;;;1.10;;
30862;SDS011;17573;55.922;37.540;2023-07-20T08:44:17;5.68;;;1.60;;
30862;SDS011;17573;55.922;37.540;2023-07-20T08:46:43;7.05;;;1.30;;
30862;SDS011;17573;55.922;37.540;2023-07-20T08:49:10;4.10;;;1.30;;
30862;SDS011;17573;55.922;37.540;2023-07-20T08:51:37;6.35;;;1.67;;
30862;SDS011;17573;55.922;37.540;2023-07-20T08:54:04;2.97;;;1.15;;
30862;SDS011;17573;55.922;37.540;2023-07-20T08:56:30;2.83;;;1.27;;
30862;SDS011;17573;55.922;37.540;2023-07-20T08:58:56;10.15;;;1.40;;
30862;SDS011;17573;55.922;37.540;2023-07-20T09:01:22;8.80;;;1.50;;
30862;SDS011;17573;55.922;37.540;2023-07-20T09:03:48;7.57;;;1.58;;
30862;SDS011;17573;55.922;37.540;2023-07-20T09:06:15;7.82;;;1.50;;
30862;SDS011;17573;55.922;37.540;2023-07-20T09:08:41;4.47;;;1.42;;
30862;SDS011;17573;55.922;37.540;2023-07-20T09:11:07;5.28;;;1.63;;
30862;SDS011;17573;55.922;37.540;2023-07-20T09:13:35;8.48;;;1.75;;
30862;SDS011;17573;55.922;37.540;2023-07-20T09:16:01;6.72;;;1.48;;
30862;SDS011;17573;55.922;37.540;2023-07-20T09:18:30;7.47;;;2.03;;
30862;SDS011;17573;55.922;37.540;2023-07-20T09:21:03;3.75;;;1.63;;
30862;SDS011;17573;55.922;37.540;2023-07-20T09:23:33;10.65;;;2.38;;
30862;SDS011;17573;55.922;37.540;2023-07-20T09:26:00;15.40;;;1.95;;
30862;SDS011;17573;55.922;37.540;2023-07-20T09:28:41;5.20;;;2.85;;
30862;SDS011;17573;55.922;37.540;2023-07-20T09:31:17;11.43;;;2.13;;
30862;SDS011;17573;55.922;37.540;2023-07-20T09:33:44;3.70;;;1.42;;
30862;SDS011;17573;55.922;37.540;2023-07-20T09:36:11;5.05;;;1.45;;
30862;SDS011;17573;55.922;37.540;2023-07-20T09:38:37;5.45;;;1.63;;
30862;SDS011;17573;55.922;37.540;2023-07-20T09:41:05;4.20;;;1.60;;
30862;SDS011;17573;55.922;37.540;2023-07-20T09:43:34;2.85;;;1.23;;
30862;SDS011;17573;55.922;37.540;2023-07-20T09:46:00;3.75;;;1.13;;
30862;SDS011;17573;55.922;37.540;2023-07-20T09:48:27;6.88;;;2.03;;
30862;SDS011;17573;55.922;37.540;2023-07-20T09:50:53;5.35;;;1.73;;
30862;SDS011;17573;55.922;37.540;2023-07-20T09:53:19;6.05;;;2.10;;
30862;SDS011;17573;55.922;37.540;2023-07-20T09:55:46;9.52;;;2.03;;
30862;SDS011;17573;55.922;37.540;2023-07-20T09:58:13;12.70;;;2.10;;
30862;SDS011;17573;55.922;37.540;2023-07-20T10:00:41;8.10;;;1.70;;
30862;SDS011;17573;55.922;37.540;2023-07-20T10:03:10;2.50;;;1.35;;
30862;SDS011;17573;55.922;37.540;2023-07-20T10:05:40;5.13;;;1.98;;
30862;SDS011;17573;55.922;37.540;2023-07-20T10:08:10;1.73;;;1.38;;
30862;SDS011;17573;55.922;37.540;2023-07-20T10:10:38;4.78;;;1.70;;
30862;SDS011;17573;55.922;37.540;2023-07-20T10:13:10;3.35;;;2.17;;
30862;SDS011;17573;55.922;37.540;2023-07-20T10:15:46;10.30;;;2.70;;
30862;SDS011;17573;55.922;37.540;2023-07-20T10:18:16;6.13;;;1.90;;
30862;SDS011;17573;55.922;37.540;2023-07-20T10:20:46;4.43;;;1.80;;
30862;SDS011;17573;55.922;37.540;2023-07-20T10:23:13;1.85;;;1.58;;
30862;SDS011;17573;55.922;37.540;2023-07-20T10:25:39;5.53;;;1.60;;
30862;SDS011;17573;55.922;37.540;2023-07-20T10:28:08;8.73;;;1.58;;
30862;SDS011;17573;55.922;37.540;2023-07-20T10:30:36;4.90;;;1.60;;
30862;SDS011;17573;55.922;37.540;2023-07-20T10:33:03;3.88;;;1.52;;
30862;SDS011;17573;55.922;37.540;2023-07-20T10:35:29;10.82;;;1.77;;
30862;SDS011;17573;55.922;37.540;2023-07-20T10:38:05;7.97;;;1.90;;
30862;SDS011;17573;55.922;37.540;2023-07-20T10:40:34;5.35;;;1.95;;
30862;SDS011;17573;55.922;37.540;2023-07-20T10:43:04;3.38;;;1.70;;
30862;SDS011;17573;55.922;37.540;2023-07-20T10:45:35;3.63;;;1.70;;
30862;SDS011;17573;55.922;37.540;2023-07-20T10:48:13;3.95;;;1.73;;
30862;SDS011;17573;55.922;37.540;2023-07-20T10:50:41;3.45;;;1.65;;
30862;SDS011;17573;55.922;37.540;2023-07-20T10:55:38;6.93;;;1.40;;
30862;SDS011;17573;55.922;37.540;2023-07-20T10:58:12;3.20;;;1.98;;
30862;SDS011;17573;55.922;37.540;2023-07-20T11:00:58;7.00;;;1.75;;
30862;SDS011;17573;55.922;37.540;2023-07-20T11:03:30;9.93;;;2.13;;
30862;SDS011;17573;55.922;37.540;2023-07-20T11:06:00;13.32;;;2.35;;
30862;SDS011;17573;55.922;37.540;2023-07-20T11:08:55;5.18;;;1.75;;
30862;SDS011;17573;55.922;37.540;2023-07-20T11:11:33;9.18;;;1.95;;
30862;SDS011;17573;55.922;37.540;2023-07-20T11:14:01;5.00;;;1.98;;
30862;SDS011;17573;55.922;37.540;2023-07-20T11:16:32;8.63;;;1.63;;
30862;SDS011;17573;55.922;37.540;2023-07-20T11:19:05;7.13;;;1.63;;
30862;SDS011;17573;55.922;37.540;2023-07-20T11:21:37;7.70;;;2.10;;
30862;SDS011;17573;55.922;37.540;2023-07-20T11:24:07;5.25;;;1.60;;
30862;SDS011;17573;55.922;37.540;2023-07-20T11:26:41;3.08;;;1.67;;
30862;SDS011;17573;55.922;37.540;2023-07-20T11:29:07;3.20;;;1.80;;
30862;SDS011;17573;55.922;37.540;2023-07-20T11:31:40;5.68;;;1.85;;
30862;SDS011;17573;55.922;37.540;2023-07-20T11:34:09;10.20;;;1.40;;
30862;SDS011;17573;55.922;37.540;2023-07-20T11:36:49;7.72;;;2.15;;
30862;SDS011;17573;55.922;37.540;2023-07-20T11:39:16;19.17;;;2.67;;
30862;SDS011;17573;55.922;37.540;2023-07-20T11:41:48;3.88;;;2.10;;
30862;SDS011;17573;55.922;37.540;2023-07-20T11:44:18;8.77;;;1.90;;
30862;SDS011;17573;55.922;37.540;2023-07-20T11:49:29;6.65;;;2.17;;
30862;SDS011;17573;55.922;37.540;2023-07-20T11:51:55;6.53;;;2.03;;
30862;SDS011;17573;55.922;37.540;2023-07-20T11:54:22;10.23;;;1.83;;
30862;SDS011;17573;55.922;37.540;2023-07-20T11:56:48;6.22;;;1.73;;
30862;SDS011;17573;55.922;37.540;2023-07-20T11:59:14;12.52;;;2.20;;
30862;SDS011;17573;55.922;37.540;2023-07-20T12:01:40;4.47;;;1.70;;
30862;SDS011;17573;55.922;37.540;2023-07-20T12:04:06;5.15;;;1.45;;
30862;SDS011;17573;55.922;37.540;2023-07-20T12:06:32;4.05;;;1.60;;
30862;SDS011;17573;55.922;37.540;2023-07-20T12:08:58;4.38;;;1.70;;
30862;SDS011;17573;55.922;37.540;2023-07-20T12:11:32;3.03;;;1.83;;
30862;SDS011;17573;55.922;37.540;2023-07-20T12:14:03;4.13;;;1.67;;
30862;SDS011;17573;55.922;37.540;2023-07-20T12:16:33;4.30;;;1.70;;
30862;SDS011;17573;55.922;37.540;2023-07-20T12:19:02;8.48;;;1.77;;
30862;SDS011;17573;55.922;37.540;2023-07-20T12:21:29;8.13;;;1.45;;
30862;SDS011;17573;55.922;37.540;2023-07-20T12:23:56;5.85;;;2.33;;
30862;SDS011;17573;55.922;37.540;2023-07-20T12:26:24;11.00;;;1.98;;
30862;SDS011;17573;55.922;37.540;2023-07-20T12:28:51;9.80;;;1.92;;
30862;SDS011;17573;55.922;37.540;2023-07-20T12:31:17;2.78;;;1.50;;
30862;SDS011;17573;55.922;37.540;2023-07-20T12:33:43;3.60;;;1.60;;
30862;SDS011;17573;55.922;37.540;2023-07-20T12:36:10;11.75;;;1.98;;
30862;SDS011;17573;55.922;37.540;2023-07-20T12:38:36;5.65;;;1.50;;
30862;SDS011;17573;55.922;37.540;2023-07-20T12:41:02;3.92;;;1.70;;
30862;SDS011;17573;55.922;37.540;2023-07-20T12:43:29;3.20;;;1.58;;
30862;SDS011;17573;55.922;37.540;2023-07-20T12:45:55;10.93;;;2.17;;
30862;SDS011;17573;55.922;37.540;2023-07-20T12:48:22;5.25;;;1.58;;
30862;SDS011;17573;55.922;37.540;2023-07-20T12:50:48;5.25;;;1.50;;
30862;SDS011;17573;55.922;37.540;2023-07-20T12:53:14;4.50;;;1.60;;
30862;SDS011;17573;55.922;37.540;2023-07-20T12:55:40;7.93;;;2.00;;
30862;SDS011;17573;55.922;37.540;2023-07-20T12:58:07;8.05;;;2.13;;
30862;SDS011;17573;55.922;37.540;2023-07-20T13:00:33;6.30;;;2.40;;
30862;SDS011;17573;55.922;37.540;2023-07-20T13:02:59;10.32;;;1.50;;
30862;SDS011;17573;55.922;37.540;2023-07-20T13:05:25;2.75;;;1.45;;
30862;SDS011;17573;55.922;37.540;2023-07-20T13:07:50;4.05;;;1.40;;
30862;SDS011;17573;55.922;37.540;2023-07-20T13:10:16;2.78;;;1.45;;
30862;SDS011;17573;55.922;37.540;2023-07-20T13:12:44;3.53;;;1.63;;
30862;SDS011;17573;55.922;37.540;2023-07-20T13:15:10;10.30;;;1.92;;
30862;SDS011;17573;55.922;37.540;2023-07-20T13:17:37;10.63;;;2.10;;
30862;SDS011;17573;55.922;37.540;2023-07-20T13:20:05;5.28;;;1.73;;
30862;SDS011;17573;55.922;37.540;2023-07-20T13:22:33;8.32;;;2.22;;
30862;SDS011;17573;55.922;37.540;2023-07-20T13:25:00;5.40;;;2.28;;
30862;SDS011;17573;55.922;37.540;2023-07-20T13:27:26;19.63;;;2.72;;
30862;SDS011;17573;55.922;37.540;2023-07-20T13:29:52;6.35;;;2.30;;
30862;SDS011;17573;55.922;37.540;2023-07-20T13:32:18;7.93;;;2.00;;
30862;SDS011;17573;55.922;37.540;2023-07-20T13:34:44;4.32;;;2.05;;
30862;SDS011;17573;55.922;37.540;2023-07-20T13:37:11;7.53;;;1.60;;
30862;SDS011;17573;55.922;37.540;2023-07-20T13:39:37;5.43;;;2.03;;
30862;SDS011;17573;55.922;37.540;2023-07-20T13:42:04;2.70;;;1.55;;
30862;SDS011;17573;55.922;37.540;2023-07-20T13:44:33;3.58;;;2.00;;
30862;SDS011;17573;55.922;37.540;2023-07-20T13:47:00;7.18;;;2.25;;
30862;SDS011;17573;55.922;37.540;2023-07-20T13:49:27;7.20;;;2.22;;
30862;SDS011;17573;55.922;37.540;2023-07-20T13:51:53;7.10;;;2.20;;
30862;SDS011;17573;55.922;37.540;2023-07-20T13:54:19;4.45;;;1.90;;
30862;SDS011;17573;55.922;37.540;2023-07-20T13:56:45;7.72;;;2.15;;
30862;SDS011;17573;55.922;37.540;2023-07-20T13:59:11;6.32;;;2.33;;
30862;SDS011;17573;55.922;37.540;2023-07-20T14:01:37;5.75;;;2.08;;
30862;SDS011;17573;55.922;37.540;2023-07-20T14:04:03;11.70;;;2.00;;
30862;SDS011;17573;55.922;37.540;2023-07-20T14:06:29;7.25;;;2.28;;
30862;SDS011;17573;55.922;37.540;2023-07-20T14:08:56;2.53;;;1.63;;
30862;SDS011;17573;55.922;37.540;2023-07-20T14:11:22;3.42;;;2.05;;
30862;SDS011;17573;55.922;37.540;2023-07-20T14:13:49;6.40;;;2.30;;
30862;SDS011;17573;55.922;37.540;2023-07-20T14:16:16;12.52;;;2.17;;
30862;SDS011;17573;55.922;37.540;2023-07-20T14:18:42;10.43;;;2.30;;
30862;SDS011;17573;55.922;37.540;2023-07-20T14:21:09;7.47;;;2.35;;
30862;SDS011;17573;55.922;37.540;2023-07-20T14:23:35;8.27;;;2.70;;
30862;SDS011;17573;55.922;37.540;2023-07-20T14:26:03;11.07;;;2.92;;
30862;SDS011;17573;55.922;37.540;2023-07-20T14:28:31;19.75;;;2.42;;
30862;SDS011;17573;55.922;37.540;2023-07-20T14:30:57;8.90;;;2.53;;
30862;SDS011;17573;55.922;37.540;2023-07-20T14:33:24;11.88;;;2.80;;
30862;SDS011;17573;55.922;37.540;2023-07-20T14:35:50;8.82;;;2.75;;
30862;SDS011;17573;55.922;37.540;2023-07-20T14:38:16;9.88;;;2.63;;
30862;SDS011;17573;55.922;37.540;2023-07-20T14:40:42;11.23;;;2.85;;
30862;SDS011;17573;55.922;37.540;2023-07-20T14:43:07;15.13;;;2.70;;
30862;SDS011;17573;55.922;37.540;2023-07-20T14:45:34;5.30;;;2.08;;
30862;SDS011;17573;55.922;37.540;2023-07-20T14:48:02;5.05;;;3.08;;
30862;SDS011;17573;55.922;37.540;2023-07-20T14:50:28;12.57;;;3.08;;